createdAt,value
2019-04-22T00:00:57.642Z,8.37
2019-04-22T00:02:02.344Z,8.34
2019-04-22T00:03:01.516Z,8.19
2019-04-22T00:04:03.856Z,8.28
2019-04-22T00:05:09.191Z,8.26
2019-04-22T00:06:12.896Z,8.27
2019-04-22T00:07:22.183Z,8.25
2019-04-22T00:08:18.387Z,8.25
2019-04-22T00:09:24.006Z,8.12
2019-04-22T00:11:18.526Z,8.08
2019-04-22T00:12:29.281Z,8.27
2019-04-22T00:13:25.937Z,8.25
2019-04-22T00:14:13.394Z,8.18
2019-04-22T00:15:15.247Z,8.26
2019-04-22T00:16:22.219Z,8.26
2019-04-22T00:18:19.860Z,8.06
2019-04-22T00:20:22.671Z,8.32
2019-04-22T00:21:26.004Z,8.24
2019-04-22T00:22:22.282Z,8.39
2019-04-22T00:25:31.043Z,8.30
2019-04-22T00:26:24.508Z,8.50
2019-04-22T00:27:29.390Z,8.54
2019-04-22T00:28:23.237Z,8.63
2019-04-22T00:29:46.228Z,8.44
2019-04-22T00:32:19.413Z,8.63
2019-04-22T00:33:24.523Z,8.39
2019-04-22T00:34:21.307Z,8.48
2019-04-22T00:35:19.803Z,8.49
2019-04-22T00:36:24.131Z,8.66
2019-04-22T00:37:25.252Z,8.52
2019-04-22T00:38:24.017Z,8.54
2019-04-22T00:41:14.613Z,8.73
2019-04-22T00:42:15.295Z,8.71
2019-04-22T00:43:13.847Z,8.56
2019-04-22T00:44:27.908Z,8.53
2019-04-22T00:46:23.916Z,8.48
2019-04-22T00:50:26.807Z,8.14
2019-04-22T00:51:25.218Z,8.41
2019-04-22T00:53:22.515Z,8.39
2019-04-22T00:54:21.429Z,8.48
2019-04-22T00:56:17.346Z,8.41
2019-04-22T00:57:21.579Z,8.18
2019-04-22T00:58:24.101Z,8.35
2019-04-22T00:59:23.605Z,8.16
2019-04-22T01:00:25.084Z,8.28
2019-04-22T01:01:14.285Z,8.39
2019-04-22T01:02:13.151Z,8.22
2019-04-22T01:03:27.361Z,8.27
2019-04-22T01:04:32.750Z,8.36
2019-04-22T01:05:16.696Z,8.21
2019-04-22T01:07:17.571Z,7.73
2019-04-22T01:11:17.201Z,8.22
2019-04-22T01:12:13.854Z,8.22
2019-04-22T01:13:25.149Z,8.09
2019-04-22T01:14:14.508Z,8.28
2019-04-22T01:15:23.416Z,8.16
2019-04-22T01:16:22.693Z,8.09
2019-04-22T01:17:19.338Z,8.23
2019-04-22T01:18:15.777Z,8.43
2019-04-22T01:19:23.625Z,8.33
2019-04-22T01:20:45.394Z,8.30
2019-04-22T01:21:16.385Z,8.39
2019-04-22T01:22:22.343Z,8.22
2019-04-22T01:23:19.805Z,8.18
2019-04-22T01:24:17.806Z,8.34
2019-04-22T01:25:19.070Z,8.23
2019-04-22T01:26:09.825Z,8.13
2019-04-22T01:27:11.430Z,8.26
2019-04-22T01:28:10.988Z,8.27
2019-04-22T01:29:12.612Z,8.12
2019-04-22T01:30:10.659Z,8.04
2019-04-22T01:31:04.989Z,8.05
2019-04-22T01:31:58.207Z,7.95
2019-04-22T01:33:06.821Z,7.77
2019-04-22T01:34:11.444Z,7.88
2019-04-22T01:35:13.035Z,7.75
2019-04-22T01:36:15.310Z,7.65
2019-04-22T01:37:18.711Z,7.74
2019-04-22T01:38:17.682Z,7.54
2019-04-22T01:39:09.165Z,7.42
2019-04-22T01:40:24.146Z,7.45
2019-04-22T01:41:16.480Z,7.47
2019-04-22T01:42:18.654Z,7.36
2019-04-22T01:43:28.257Z,7.36
2019-04-22T01:45:29.458Z,7.34
2019-04-22T01:46:29.974Z,7.22
2019-04-22T01:47:29.939Z,7.22
2019-04-22T01:48:27.839Z,7.30
2019-04-22T01:49:14.669Z,7.35
2019-04-22T01:50:16.959Z,7.20
2019-04-22T01:51:35.479Z,7.05
2019-04-22T01:55:27.416Z,7.09
2019-04-22T01:56:24.224Z,6.90
2019-04-22T01:58:17.132Z,7.11
2019-04-22T01:59:15.692Z,7.15
2019-04-22T02:00:16.408Z,7.19
2019-04-22T02:01:22.124Z,7.22
2019-04-22T02:04:30.382Z,7.05
2019-04-22T02:05:14.595Z,6.97
2019-04-22T02:06:28.821Z,6.91
2019-04-22T02:07:25.410Z,6.82
2019-04-22T02:08:33.129Z,6.98
2019-04-22T02:09:17.713Z,6.85
2019-04-22T02:10:29.294Z,6.95
2019-04-22T02:11:26.059Z,6.95
2019-04-22T02:12:14.667Z,6.92
2019-04-22T02:13:15.372Z,6.91
2019-04-22T02:14:29.144Z,6.87
2019-04-22T02:16:21.445Z,6.96
2019-04-22T02:17:25.254Z,6.79
2019-04-22T02:19:18.400Z,6.81
2019-04-22T02:20:18.391Z,7.03
2019-04-22T02:21:13.811Z,7.25
2019-04-22T02:22:29.113Z,7.42
2019-04-22T02:23:45.462Z,7.46
2019-04-22T02:25:30.079Z,7.54
2019-04-22T02:26:25.599Z,7.41
2019-04-22T02:27:26.388Z,7.52
2019-04-22T02:28:32.593Z,7.47
2019-04-22T02:29:23.251Z,7.20
2019-04-22T02:30:24.901Z,7.78
2019-04-22T02:33:54.795Z,8.04
2019-04-22T02:35:34.567Z,7.87
2019-04-22T02:36:29.109Z,7.83
2019-04-22T02:37:23.396Z,7.88
2019-04-22T02:38:44.937Z,7.73
2019-04-22T02:39:19.935Z,7.79
2019-04-22T02:40:38.102Z,7.75
2019-04-22T02:43:26.021Z,7.52
2019-04-22T02:47:22.408Z,7.38
2019-04-22T02:49:29.077Z,7.32
2019-04-22T02:50:08.872Z,7.46
2019-04-22T02:51:16.851Z,7.32
2019-04-22T02:52:35.412Z,7.38
2019-04-22T02:54:13.919Z,7.42
2019-04-22T02:54:38.321Z,7.30
2019-04-22T02:55:23.129Z,7.30
2019-04-22T02:57:28.014Z,7.47
2019-04-22T02:58:44.975Z,7.35
2019-04-22T02:59:31.044Z,7.55
2019-04-22T03:00:30.326Z,7.34
2019-04-22T03:01:31.313Z,7.45
2019-04-22T03:03:48.167Z,7.44
2019-04-22T03:04:22.866Z,7.60
2019-04-22T03:05:21.999Z,7.71
2019-04-22T03:07:26.036Z,7.64
2019-04-22T03:09:18.052Z,7.10
2019-04-22T03:11:19.041Z,7.82
2019-04-22T03:12:27.006Z,7.65
2019-04-22T03:14:15.423Z,7.53
2019-04-22T03:15:19.978Z,7.51
2019-04-22T03:16:31.902Z,7.55
2019-04-22T03:17:34.350Z,7.69
2019-04-22T03:19:26.075Z,7.42
2019-04-22T03:20:28.988Z,7.61
2019-04-22T03:21:26.108Z,7.37
2019-04-22T03:22:19.246Z,7.47
2019-04-22T03:23:36.896Z,7.44
2019-04-22T03:25:51.579Z,7.42
2019-04-22T03:26:34.124Z,7.44
2019-04-22T03:27:16.793Z,7.33
2019-04-22T03:29:29.724Z,7.16
2019-04-22T03:30:47.467Z,7.16
2019-04-22T03:31:34.277Z,7.07
2019-04-22T03:32:56.335Z,6.95
2019-04-22T03:33:44.287Z,7.13
2019-04-22T03:34:55.349Z,7.17
2019-04-22T03:37:41.469Z,6.79
2019-04-22T03:38:45.672Z,6.67
2019-04-22T03:39:29.647Z,6.67
2019-04-22T03:40:28.201Z,6.60
2019-04-22T03:42:25.336Z,6.62
2019-04-22T03:46:30.116Z,6.35
2019-04-22T03:48:26.115Z,6.26
2019-04-22T03:50:25.534Z,6.12
2019-04-22T03:51:38.771Z,6.18
2019-04-22T03:52:23.981Z,6.18
2019-04-22T03:53:14.972Z,6.17
2019-04-22T03:55:16.161Z,6.20
2019-04-22T03:56:36.581Z,5.80
2019-04-22T03:57:44.823Z,5.97
2019-04-22T03:58:21.888Z,5.97
2019-04-22T03:59:33.540Z,5.70
2019-04-22T04:00:35.508Z,5.92
2019-04-22T04:01:40.526Z,5.86
2019-04-22T04:03:11.759Z,5.88
2019-04-22T04:04:21.070Z,5.34
2019-04-22T04:06:20.662Z,5.55
2019-04-22T04:09:35.964Z,5.76
2019-04-22T04:11:37.714Z,5.84
2019-04-22T04:12:25.774Z,5.72
2019-04-22T04:13:28.595Z,5.78
2019-04-22T04:14:18.115Z,5.92
2019-04-22T04:15:20.951Z,5.90
2019-04-22T04:16:30.401Z,5.65
2019-04-22T04:18:21.243Z,5.69
2019-04-22T04:19:28.154Z,5.77
2019-04-22T04:20:28.719Z,5.72
2019-04-22T04:22:50.327Z,5.88
2019-04-22T04:23:37.932Z,5.73
2019-04-22T04:26:45.566Z,5.74
2019-04-22T04:28:31.599Z,5.84
2019-04-22T04:31:32.752Z,5.81
2019-04-22T04:33:30.187Z,5.69
2019-04-22T04:35:42.862Z,5.67
2019-04-22T04:36:16.548Z,5.73
2019-04-22T04:37:38.741Z,5.61
2019-04-22T04:38:32.118Z,5.57
2019-04-22T04:39:22.105Z,5.56
2019-04-22T04:40:20.664Z,5.41
2019-04-22T04:41:26.648Z,5.51
2019-04-22T04:42:25.297Z,5.37
2019-04-22T04:43:15.613Z,5.54
2019-04-22T04:44:22.770Z,5.56
2019-04-22T04:48:22.455Z,5.51
2019-04-22T04:50:35.875Z,5.46
2019-04-22T04:51:33.537Z,5.61
2019-04-22T04:52:39.773Z,5.51
2019-04-22T04:53:24.491Z,5.47
2019-04-22T04:54:30.536Z,5.45
2019-04-22T04:55:28.228Z,5.40
2019-04-22T04:57:33.598Z,5.50
2019-04-22T05:00:48.151Z,5.58
2019-04-22T05:01:30.872Z,5.35
2019-04-22T05:02:41.040Z,5.51
2019-04-22T05:03:24.617Z,5.67
2019-04-22T05:04:43.845Z,5.61
2019-04-22T05:05:16.822Z,5.61
2019-04-22T05:06:39.621Z,5.67
2019-04-22T05:08:35.332Z,5.91
2019-04-22T05:09:26.317Z,5.80
2019-04-22T05:11:43.043Z,5.84
2019-04-22T05:12:27.571Z,6.04
2019-04-22T05:13:26.051Z,5.99
2019-04-22T05:14:24.889Z,6.13
2019-04-22T05:15:34.742Z,6.10
2019-04-22T05:16:36.115Z,6.22
2019-04-22T05:17:18.580Z,6.27
2019-04-22T05:19:26.215Z,6.39
2019-04-22T05:20:38.653Z,6.27
2019-04-22T05:23:30.410Z,6.60
2019-04-22T05:24:19.520Z,6.76
2019-04-22T05:25:23.607Z,6.83
2019-04-22T05:27:29.423Z,6.58
2019-04-22T05:29:32.878Z,6.92
2019-04-22T05:30:26.708Z,6.98
2019-04-22T05:31:15.697Z,7.43
2019-04-22T05:32:17.622Z,7.56
2019-04-22T05:33:16.767Z,7.46
2019-04-22T05:35:29.283Z,7.57
2019-04-22T05:36:29.782Z,7.36
2019-04-22T05:38:25.987Z,7.77
2019-04-22T05:39:12.556Z,7.93
2019-04-22T05:40:26.188Z,8.05
2019-04-22T05:41:25.424Z,7.37
2019-04-22T05:42:18.107Z,7.66
2019-04-22T05:43:23.602Z,7.96
2019-04-22T05:44:22.326Z,7.67
2019-04-22T05:45:17.687Z,7.79
2019-04-22T05:46:19.866Z,8.04
2019-04-22T05:47:20.924Z,8.29
2019-04-22T05:48:23.184Z,8.11
2019-04-22T05:49:15.118Z,7.80
2019-04-22T05:51:25.632Z,7.92
2019-04-22T05:53:13.554Z,8.34
2019-04-22T05:54:14.683Z,8.47
2019-04-22T05:55:13.921Z,8.37
2019-04-22T05:56:20.688Z,8.30
2019-04-22T05:57:27.930Z,7.85
2019-04-22T05:58:15.221Z,8.15
2019-04-22T05:59:24.801Z,8.68
2019-04-22T06:00:16.192Z,8.47
2019-04-22T06:01:38.949Z,8.64
2019-04-22T06:02:30.866Z,9.05
2019-04-22T06:03:16.779Z,8.95
2019-04-22T06:05:27.508Z,9.17
2019-04-22T06:06:15.058Z,8.95
2019-04-22T06:07:19.724Z,8.98
2019-04-22T06:08:11.868Z,9.23
2019-04-22T06:09:26.047Z,9.00
2019-04-22T06:10:26.087Z,9.32
2019-04-22T06:11:25.766Z,9.40
2019-04-22T06:12:18.571Z,9.12
2019-04-22T06:13:18.171Z,9.12
2019-04-22T06:14:19.108Z,9.38
2019-04-22T06:16:18.291Z,9.58
2019-04-22T06:17:24.674Z,9.47
2019-04-22T06:18:15.982Z,9.42
2019-04-22T06:19:18.837Z,9.75
2019-04-22T06:20:21.842Z,9.73
2019-04-22T06:21:11.364Z,9.68
2019-04-22T06:22:30.359Z,9.96
2019-04-22T06:23:25.618Z,9.95
2019-04-22T06:25:30.018Z,9.99
2019-04-22T06:26:35.775Z,10.30
2019-04-22T06:29:16.434Z,10.49
2019-04-22T06:31:28.222Z,10.87
2019-04-22T06:33:14.901Z,10.78
2019-04-22T06:34:17.690Z,10.79
2019-04-22T06:35:34.571Z,10.98
2019-04-22T06:36:24.444Z,10.91
2019-04-22T06:37:24.811Z,10.74
2019-04-22T06:39:27.828Z,10.71
2019-04-22T06:42:13.464Z,11.00
2019-04-22T06:43:22.446Z,10.96
2019-04-22T06:44:24.237Z,11.16
2019-04-22T06:46:18.716Z,11.50
2019-04-22T06:48:23.833Z,10.77
2019-04-22T06:49:26.845Z,11.49
2019-04-22T06:50:24.505Z,11.36
2019-04-22T06:51:18.382Z,10.99
2019-04-22T06:54:14.670Z,11.07
2019-04-22T06:55:16.505Z,11.43
2019-04-22T06:56:21.986Z,11.82
2019-04-22T06:57:13.179Z,11.56
2019-04-22T06:58:20.023Z,11.22
2019-04-22T07:01:27.682Z,12.04
2019-04-22T07:02:23.858Z,11.51
2019-04-22T07:03:34.666Z,11.63
2019-04-22T07:04:09.434Z,11.84
2019-04-22T07:05:17.657Z,11.66
2019-04-22T07:06:29.542Z,11.92
2019-04-22T07:08:30.390Z,11.90
2019-04-22T07:11:18.243Z,12.60
2019-04-22T07:12:24.489Z,11.66
2019-04-22T07:13:17.383Z,12.27
2019-04-22T07:14:19.112Z,11.91
2019-04-22T07:15:35.486Z,12.45
2019-04-22T07:16:30.229Z,12.24
2019-04-22T07:17:23.333Z,12.67
2019-04-22T07:19:18.419Z,11.66
2019-04-22T07:20:24.230Z,11.75
2019-04-22T07:21:21.021Z,11.14
2019-04-22T07:22:22.805Z,10.99
2019-04-22T07:23:27.104Z,12.02
2019-04-22T07:24:35.701Z,11.82
2019-04-22T07:25:15.999Z,12.29
2019-04-22T07:26:11.841Z,12.65
2019-04-22T07:27:25.682Z,12.76
2019-04-22T07:29:13.833Z,13.11
2019-04-22T07:30:21.967Z,12.68
2019-04-22T07:31:20.654Z,12.82
2019-04-22T07:32:20.615Z,12.49
2019-04-22T07:33:27.909Z,12.64
2019-04-22T07:34:26.485Z,12.41
2019-04-22T07:35:29.174Z,12.87
2019-04-22T07:37:23.353Z,13.35
2019-04-22T07:39:27.145Z,13.36
2019-04-22T07:40:27.077Z,13.81
2019-04-22T07:41:25.941Z,13.92
2019-04-22T07:42:24.473Z,13.48
2019-04-22T07:43:27.944Z,14.03
2019-04-22T07:44:28.062Z,13.88
2019-04-22T07:45:28.170Z,13.59
2019-04-22T07:46:13.555Z,13.80
2019-04-22T07:47:25.353Z,13.56
2019-04-22T07:48:20.766Z,14.05
2019-04-22T07:49:25.842Z,14.00
2019-04-22T07:51:23.612Z,13.79
2019-04-22T07:52:24.660Z,13.98
2019-04-22T07:53:21.853Z,14.23
2019-04-22T07:54:16.332Z,14.41
2019-04-22T07:55:24.411Z,14.49
2019-04-22T07:56:27.648Z,13.54
2019-04-22T07:57:27.931Z,14.32
2019-04-22T07:58:27.410Z,14.36
2019-04-22T07:59:22.219Z,14.30
2019-04-22T08:01:24.664Z,14.50
2019-04-22T08:02:26.101Z,14.52
2019-04-22T08:05:24.886Z,14.59
2019-04-22T08:06:23.361Z,14.36
2019-04-22T08:07:26.026Z,14.77
2019-04-22T08:08:19.468Z,14.31
2019-04-22T08:09:31.812Z,13.89
2019-04-22T08:11:40.559Z,14.79
2019-04-22T08:13:25.374Z,14.44
2019-04-22T08:14:14.764Z,14.35
2019-04-22T08:16:16.793Z,14.72
2019-04-22T08:17:50.226Z,14.26
2019-04-22T08:18:20.357Z,14.36
2019-04-22T08:20:27.345Z,14.51
2019-04-22T08:21:16.609Z,14.46
2019-04-22T08:22:20.700Z,14.45
2019-04-22T08:23:23.737Z,14.23
2019-04-22T08:24:22.653Z,14.28
2019-04-22T08:25:10.046Z,14.76
2019-04-22T08:26:11.131Z,14.56
2019-04-22T08:28:25.570Z,14.54
2019-04-22T08:29:32.795Z,14.86
2019-04-22T08:30:28.961Z,14.92
2019-04-22T08:32:21.952Z,15.04
2019-04-22T08:34:14.268Z,15.41
2019-04-22T08:35:38.274Z,15.12
2019-04-22T08:37:37.388Z,15.07
2019-04-22T08:38:30.877Z,15.46
2019-04-22T08:40:34.702Z,14.73
2019-04-22T08:43:33.395Z,15.14
2019-04-22T08:44:18.164Z,14.87
2019-04-22T08:45:28.050Z,15.56
2019-04-22T08:47:21.517Z,15.65
2019-04-22T08:48:24.417Z,16.03
2019-04-22T08:49:09.897Z,15.49
2019-04-22T08:50:20.351Z,15.94
2019-04-22T08:51:27.238Z,15.86
2019-04-22T08:52:21.089Z,15.75
2019-04-22T08:53:28.170Z,15.77
2019-04-22T08:54:19.933Z,15.74
2019-04-22T08:56:29.506Z,15.31
2019-04-22T08:57:31.841Z,15.54
2019-04-22T08:58:25.550Z,15.86
2019-04-22T08:59:16.516Z,15.51
2019-04-22T09:00:20.065Z,15.27
2019-04-22T09:01:22.807Z,16.17
2019-04-22T09:02:30.126Z,15.48
2019-04-22T09:03:16.326Z,15.10
2019-04-22T09:04:11.632Z,15.33
2019-04-22T09:05:33.974Z,13.93
2019-04-22T09:06:29.954Z,15.42
2019-04-22T09:07:29.176Z,15.71
2019-04-22T09:08:26.760Z,16.15
2019-04-22T09:09:22.569Z,16.23
2019-04-22T09:10:25.810Z,16.66
2019-04-22T09:12:20.091Z,15.90
2019-04-22T09:13:20.613Z,16.23
2019-04-22T09:14:26.656Z,16.64
2019-04-22T09:15:26.378Z,16.04
2019-04-22T09:16:27.956Z,15.00
2019-04-22T09:18:25.121Z,16.30
2019-04-22T09:19:14.521Z,15.47
2019-04-22T09:20:13.129Z,15.03
2019-04-22T09:21:27.739Z,14.71
2019-04-22T09:22:21.882Z,15.41
2019-04-22T09:23:15.009Z,15.12
2019-04-22T09:24:25.153Z,15.78
2019-04-22T09:25:16.678Z,15.34
2019-04-22T09:26:19.886Z,15.90
2019-04-22T09:27:22.146Z,15.92
2019-04-22T09:28:17.324Z,16.19
2019-04-22T09:29:28.006Z,16.39
2019-04-22T09:30:30.723Z,15.86
2019-04-22T09:31:11.118Z,15.80
2019-04-22T09:32:15.442Z,16.51
2019-04-22T09:33:14.091Z,16.48
2019-04-22T09:34:23.013Z,16.82
2019-04-22T09:35:25.204Z,16.97
2019-04-22T09:36:29.543Z,17.25
2019-04-22T09:37:30.450Z,17.15
2019-04-22T09:38:34.680Z,17.45
2019-04-22T09:39:28.330Z,17.30
2019-04-22T09:40:21.756Z,16.99
2019-04-22T09:42:24.218Z,17.80
2019-04-22T09:43:24.191Z,15.95
2019-04-22T09:44:19.077Z,16.90
2019-04-22T09:45:15.496Z,17.51
2019-04-22T09:46:21.539Z,17.07
2019-04-22T09:48:16.521Z,16.96
2019-04-22T09:50:22.228Z,16.48
2019-04-22T09:51:20.428Z,17.18
2019-04-22T09:52:20.669Z,16.34
2019-04-22T09:53:19.703Z,16.90
2019-04-22T09:54:30.976Z,16.71
2019-04-22T09:57:15.782Z,16.44
2019-04-22T09:58:23.581Z,17.47
2019-04-22T09:59:22.698Z,17.27
2019-04-22T10:00:14.002Z,17.04
2019-04-22T10:01:18.672Z,17.02
2019-04-22T10:02:31.774Z,17.60
2019-04-22T10:03:20.563Z,17.40
2019-04-22T10:04:14.336Z,17.00
2019-04-22T10:06:27.796Z,17.88
2019-04-22T10:07:16.442Z,18.02
2019-04-22T10:10:20.561Z,16.80
2019-04-22T10:11:26.813Z,17.62
2019-04-22T10:12:30.377Z,17.65
2019-04-22T10:13:32.138Z,18.52
2019-04-22T10:15:22.721Z,18.50
2019-04-22T10:16:17.618Z,18.45
2019-04-22T10:18:25.957Z,18.68
2019-04-22T10:19:18.091Z,18.56
2019-04-22T10:20:10.544Z,18.54
2019-04-22T10:21:27.286Z,18.26
2019-04-22T10:22:29.197Z,17.86
2019-04-22T10:23:30.226Z,17.93
2019-04-22T10:24:18.955Z,17.53
2019-04-22T10:25:28.000Z,17.72
2019-04-22T10:26:27.956Z,17.28
2019-04-22T10:27:20.606Z,17.90
2019-04-22T10:28:28.632Z,18.27
2019-04-22T10:29:10.699Z,18.25
2019-04-22T10:30:25.151Z,18.80
2019-04-22T10:31:23.927Z,18.78
2019-04-22T10:32:11.270Z,18.84
2019-04-22T10:33:14.995Z,18.86
2019-04-22T10:34:11.774Z,19.03
2019-04-22T10:35:03.150Z,19.06
2019-04-22T10:35:59.350Z,19.02
2019-04-22T10:37:02.492Z,19.08
2019-04-22T10:37:58.490Z,19.05
2019-04-22T10:38:58.187Z,18.87
2019-04-22T10:40:02.335Z,19.04
2019-04-22T10:40:58.678Z,19.16
2019-04-22T10:41:58.910Z,19.17
2019-04-22T10:42:59.100Z,19.33
2019-04-22T10:43:57.283Z,19.36
2019-04-22T10:44:59.307Z,19.24
2019-04-22T10:45:57.854Z,19.31
2019-04-22T10:46:58.122Z,19.32
2019-04-22T10:47:58.375Z,19.48
2019-04-22T10:48:58.083Z,19.68
2019-04-22T10:49:58.273Z,19.38
2019-04-22T10:50:58.749Z,19.25
2019-04-22T10:51:58.352Z,19.03
2019-04-22T10:52:57.486Z,19.09
2019-04-22T10:53:57.991Z,19.19
2019-04-22T10:54:58.992Z,19.16
2019-04-22T10:55:57.084Z,19.26
2019-04-22T10:56:59.013Z,19.12
2019-04-22T10:57:58.889Z,19.15
2019-04-22T10:58:58.423Z,19.17
2019-04-22T10:59:58.525Z,19.16
2019-04-22T11:00:58.234Z,19.12
2019-04-22T11:01:59.187Z,18.96
2019-04-22T11:02:58.362Z,18.83
2019-04-22T11:03:59.456Z,18.74
2019-04-22T11:04:58.540Z,18.72
2019-04-22T11:05:59.230Z,18.75
2019-04-22T11:07:03.345Z,18.79
2019-04-22T11:08:02.581Z,19.09
2019-04-22T11:09:01.142Z,19.11
2019-04-22T11:10:15.376Z,19.09
2019-04-22T11:11:12.236Z,19.09
2019-04-22T11:12:04.535Z,18.99
2019-04-22T11:12:59.013Z,18.91
2019-04-22T11:13:58.094Z,18.85
2019-04-22T11:14:58.208Z,18.87
2019-04-22T11:15:58.356Z,18.89
2019-04-22T11:16:58.838Z,19.08
2019-04-22T11:17:57.936Z,19.22
2019-04-22T11:18:57.569Z,19.22
2019-04-22T11:19:57.969Z,19.18
2019-04-22T11:20:57.841Z,19.05
2019-04-22T11:22:06.964Z,19.16
2019-04-22T11:22:58.513Z,19.16
2019-04-22T11:24:00.787Z,19.11
2019-04-22T11:24:59.825Z,19.05
2019-04-22T11:25:58.004Z,18.96
2019-04-22T11:26:58.867Z,18.80
2019-04-22T11:28:01.863Z,18.97
2019-04-22T11:28:59.316Z,19.00
2019-04-22T11:29:59.487Z,19.09
2019-04-22T11:30:58.708Z,19.05
2019-04-22T11:31:58.061Z,19.04
2019-04-22T11:32:58.415Z,19.07
2019-04-22T11:33:58.557Z,19.21
2019-04-22T11:34:58.070Z,19.02
2019-04-22T11:35:58.003Z,18.93
2019-04-22T11:36:58.968Z,18.94
2019-04-22T11:37:59.151Z,18.93
2019-04-22T11:39:02.014Z,18.97
2019-04-22T11:40:06.822Z,18.89
2019-04-22T11:41:01.129Z,18.94
2019-04-22T11:41:58.402Z,18.15
2019-04-22T11:42:59.589Z,18.72
2019-04-22T11:43:59.094Z,18.44
2019-04-22T11:44:59.229Z,17.98
2019-04-22T11:45:57.838Z,18.11
2019-04-22T11:46:59.172Z,17.90
2019-04-22T11:47:59.368Z,18.56
2019-04-22T11:48:58.117Z,18.07
2019-04-22T11:49:57.802Z,18.37
2019-04-22T11:50:57.801Z,18.18
2019-04-22T11:51:58.930Z,17.52
2019-04-22T11:52:58.557Z,17.99
2019-04-22T11:53:58.796Z,17.92
2019-04-22T11:54:58.847Z,17.97
2019-04-22T11:55:58.331Z,18.41
2019-04-22T11:56:58.996Z,18.27
2019-04-22T11:57:58.910Z,18.61
2019-04-22T11:58:57.836Z,18.29
2019-04-22T11:59:58.851Z,18.46
2019-04-22T12:00:59.206Z,18.23
2019-04-22T12:01:57.980Z,18.01
2019-04-22T12:02:58.829Z,17.40
2019-04-22T12:03:58.070Z,18.36
2019-04-22T12:04:58.176Z,18.45
2019-04-22T12:05:57.706Z,18.18
2019-04-22T12:06:57.970Z,18.43
2019-04-22T12:07:59.007Z,18.26
2019-04-22T12:08:59.477Z,17.87
2019-04-22T12:09:57.923Z,18.49
2019-04-22T12:11:00.406Z,18.21
2019-04-22T12:11:58.097Z,18.57
2019-04-22T12:12:57.857Z,18.14
2019-04-22T12:13:57.982Z,17.69
2019-04-22T12:14:58.661Z,18.51
2019-04-22T12:15:58.958Z,18.14
2019-04-22T12:16:59.414Z,16.66
2019-04-22T12:17:59.017Z,17.91
2019-04-22T12:18:58.767Z,17.07
2019-04-22T12:19:57.992Z,18.14
2019-04-22T12:20:59.199Z,17.98
2019-04-22T12:21:59.112Z,17.62
2019-04-22T12:22:58.980Z,17.83
2019-04-22T12:23:59.034Z,18.63
2019-04-22T12:24:58.610Z,18.65
2019-04-22T12:26:03.466Z,18.90
2019-04-22T12:26:58.125Z,17.91
2019-04-22T12:27:59.038Z,18.65
2019-04-22T12:28:59.236Z,18.44
2019-04-22T12:29:58.738Z,17.25
2019-04-22T12:30:57.470Z,17.65
2019-04-22T12:31:57.878Z,18.58
2019-04-22T12:32:58.235Z,18.99
2019-04-22T12:33:59.321Z,19.21
2019-04-22T12:34:57.987Z,19.19
2019-04-22T12:35:57.502Z,19.22
2019-04-22T12:36:58.510Z,19.27
2019-04-22T12:38:02.565Z,19.28
2019-04-22T12:38:58.027Z,19.17
2019-04-22T12:39:58.300Z,19.16
2019-04-22T12:41:01.238Z,19.13
2019-04-22T12:41:58.436Z,19.25
2019-04-22T12:42:59.489Z,19.31
2019-04-22T12:43:58.968Z,19.32
2019-04-22T12:44:58.339Z,19.32
2019-04-22T12:45:58.313Z,19.39
2019-04-22T12:47:00.263Z,19.33
2019-04-22T12:47:57.983Z,19.44
2019-04-22T12:48:58.247Z,19.25
2019-04-22T12:50:08.868Z,19.23
2019-04-22T12:51:02.949Z,19.20
2019-04-22T12:51:58.884Z,19.21
2019-04-22T12:53:03.036Z,19.20
2019-04-22T12:53:59.355Z,18.95
2019-04-22T12:54:57.933Z,18.66
2019-04-22T12:55:59.099Z,18.49
2019-04-22T12:56:59.606Z,17.46
2019-04-22T12:58:00.518Z,17.88
2019-04-22T12:58:59.313Z,16.54
2019-04-22T12:59:59.261Z,17.14
2019-04-22T13:00:58.909Z,17.59
2019-04-22T13:01:56.954Z,17.43
2019-04-22T13:02:58.802Z,16.78
2019-04-22T13:04:03.262Z,16.88
2019-04-22T13:04:58.315Z,18.15
2019-04-22T13:05:57.531Z,17.42
2019-04-22T13:06:59.610Z,17.15
2019-04-22T13:07:58.136Z,16.30
2019-04-22T13:08:58.020Z,16.85
2019-04-22T13:09:59.239Z,17.44
2019-04-22T13:11:02.870Z,17.05
2019-04-22T13:11:59.229Z,17.52
2019-04-22T13:12:58.679Z,17.55
2019-04-22T13:13:58.914Z,18.18
2019-04-22T13:15:01.509Z,18.77
2019-04-22T13:15:59.346Z,18.41
2019-04-22T13:16:57.992Z,18.22
2019-04-22T13:18:09.833Z,18.22
2019-04-22T13:19:01.946Z,15.79
2019-04-22T13:19:58.410Z,18.16
2019-04-22T13:20:57.706Z,17.38
2019-04-22T13:21:58.635Z,18.20
2019-04-22T13:22:58.828Z,18.58
2019-04-22T13:23:59.241Z,17.29
2019-04-22T13:24:57.675Z,16.25
2019-04-22T13:25:59.066Z,17.73
2019-04-22T13:26:59.124Z,17.99
2019-04-22T13:27:58.056Z,17.17
2019-04-22T13:28:59.065Z,17.62
2019-04-22T13:29:59.404Z,17.99
2019-04-22T13:31:00.249Z,17.97
2019-04-22T13:31:58.911Z,17.90
2019-04-22T13:32:58.753Z,17.61
2019-04-22T13:34:00.177Z,18.16
2019-04-22T13:35:01.167Z,17.99
2019-04-22T13:35:59.592Z,18.71
2019-04-22T13:36:59.002Z,17.95
2019-04-22T13:37:59.330Z,18.53
2019-04-22T13:38:58.713Z,17.74
2019-04-22T13:39:58.963Z,17.58
2019-04-22T13:41:14.024Z,18.02
2019-04-22T13:42:03.791Z,18.34
2019-04-22T13:42:58.671Z,18.30
2019-04-22T13:43:58.160Z,18.10
2019-04-22T13:44:58.187Z,18.26
2019-04-22T13:45:58.399Z,17.70
2019-04-22T13:47:12.527Z,18.15
2019-04-22T13:48:14.684Z,18.19
2019-04-22T13:49:27.030Z,18.12
2019-04-22T13:51:33.960Z,18.47
2019-04-22T13:52:45.125Z,18.25
2019-04-22T13:53:42.712Z,17.84
2019-04-22T13:55:25.896Z,17.74
2019-04-22T13:56:16.904Z,17.92
2019-04-22T13:57:19.781Z,16.81
2019-04-22T13:58:12.368Z,18.08
2019-04-22T13:59:09.136Z,17.98
2019-04-22T13:59:59.844Z,18.34
2019-04-22T14:00:58.580Z,18.15
2019-04-22T14:01:56.773Z,18.48
2019-04-22T14:02:58.452Z,17.74
2019-04-22T14:03:58.795Z,17.39
2019-04-22T14:04:58.829Z,17.32
2019-04-22T14:05:58.558Z,17.73
2019-04-22T14:06:58.773Z,17.92
2019-04-22T14:08:00.786Z,18.08
2019-04-22T14:08:59.014Z,18.17
2019-04-22T14:09:58.309Z,17.24
2019-04-22T14:11:11.842Z,17.05
2019-04-22T14:12:03.374Z,17.21
2019-04-22T14:13:00.282Z,17.82
2019-04-22T14:13:58.735Z,15.95
2019-04-22T14:14:58.415Z,17.05
2019-04-22T14:15:59.423Z,17.62
2019-04-22T14:16:58.809Z,17.82
2019-04-22T14:17:58.842Z,17.35
2019-04-22T14:18:58.209Z,17.14
2019-04-22T14:19:57.938Z,16.72
2019-04-22T14:20:58.733Z,17.50
2019-04-22T14:21:59.696Z,16.67
2019-04-22T14:22:58.749Z,17.27
2019-04-22T14:23:58.541Z,17.58
2019-04-22T14:24:58.933Z,17.47
2019-04-22T14:25:59.102Z,17.36
2019-04-22T14:27:13.493Z,16.98
2019-04-22T14:28:01.974Z,17.21
2019-04-22T14:28:58.063Z,17.66
2019-04-22T14:29:58.198Z,17.43
2019-04-22T14:30:58.608Z,17.72
2019-04-22T14:32:06.696Z,17.41
2019-04-22T14:32:58.322Z,17.16
2019-04-22T14:34:01.823Z,17.10
2019-04-22T14:34:58.341Z,17.41
2019-04-22T14:35:58.663Z,17.11
2019-04-22T14:36:59.298Z,16.49
2019-04-22T14:37:58.476Z,17.26
2019-04-22T14:38:59.524Z,17.18
2019-04-22T14:39:57.868Z,17.16
2019-04-22T14:40:59.061Z,16.93
2019-04-22T14:42:13.943Z,16.98
2019-04-22T14:43:22.780Z,17.49
2019-04-22T14:44:59.466Z,17.14
2019-04-22T14:45:26.134Z,17.36
2019-04-22T14:46:15.863Z,16.01
2019-04-22T14:47:19.588Z,17.56
2019-04-22T14:48:10.919Z,16.84
2019-04-22T14:50:17.660Z,16.29
2019-04-22T14:51:18.928Z,17.29
2019-04-22T14:52:23.019Z,16.93
2019-04-22T14:53:19.468Z,17.14
2019-04-22T14:54:16.912Z,16.92
2019-04-22T14:55:07.987Z,17.42
2019-04-22T14:55:58.192Z,17.16
2019-04-22T14:56:58.945Z,16.32
2019-04-22T14:57:59.230Z,17.47
2019-04-22T14:58:58.805Z,16.77
2019-04-22T14:59:59.570Z,17.38
2019-04-22T15:00:59.016Z,16.96
2019-04-22T15:01:58.222Z,15.91
2019-04-22T15:02:59.606Z,16.47
2019-04-22T15:03:58.818Z,16.88
2019-04-22T15:04:58.485Z,17.56
2019-04-22T15:05:58.246Z,17.23
2019-04-22T15:06:59.079Z,17.45
2019-04-22T15:07:59.156Z,15.92
2019-04-22T15:08:59.513Z,17.00
2019-04-22T15:09:58.180Z,15.90
2019-04-22T15:10:58.353Z,16.81
2019-04-22T15:12:05.754Z,17.58
2019-04-22T15:13:00.567Z,17.16
2019-04-22T15:13:59.198Z,16.78
2019-04-22T15:14:59.649Z,17.22
2019-04-22T15:15:59.533Z,17.36
2019-04-22T15:16:58.110Z,17.51
2019-04-22T15:17:58.850Z,17.03
2019-04-22T15:18:58.254Z,16.31
2019-04-22T15:19:58.100Z,16.89
2019-04-22T15:20:56.818Z,17.23
2019-04-22T15:21:58.741Z,15.58
2019-04-22T15:22:59.081Z,16.24
2019-04-22T15:23:58.287Z,16.67
2019-04-22T15:24:56.877Z,17.31
2019-04-22T15:25:58.906Z,16.70